Time;durP1;ratioP1;P1;durP2;ratioP2;P2;SDS_P1;SDS_P2;PMS_P1;PMS_P2;Temp;Humidity;BMP_temperature;BMP_pressure;BME280_temperature;BME280_humidity;BME280_pressure;Samples;Min_cycle;Max_cycle;Signal;HPM_P1;HPM_P2
2022/04/11 00:01:41;;;;;;;19.92;12.13;;;;;;;3.76;77.19;101384.28;6193576;23;20025;-89
2022/04/11 00:04:07;;;;;;;16.42;12.30;;;;;;;3.75;76.88;101383.47;6194239;23;20029;-89
2022/04/11 00:06:34;;;;;;;13.32;11.00;;;;;;;3.63;77.06;101366.09;6194680;23;20352;-89
2022/04/11 00:09:00;;;;;;;16.15;11.38;;;;;;;3.66;77.85;101366.72;6192734;23;20017;-89
2022/04/11 00:11:27;;;;;;;19.92;12.00;;;;;;;3.65;77.13;101378.00;6194073;23;20033;-89
2022/04/11 00:13:54;;;;;;;16.88;11.05;;;;;;;3.62;77.18;101373.00;6194461;23;20525;-90
2022/04/11 00:16:22;;;;;;;17.95;10.90;;;;;;;3.61;77.67;101367.94;6193857;23;20029;-90
2022/04/11 00:18:49;;;;;;;17.58;11.90;;;;;;;3.64;77.36;101378.09;6193703;23;20021;-89
2022/04/11 00:21:16;;;;;;;18.85;11.38;;;;;;;3.64;77.59;101376.34;6193311;23;20093;-89
2022/04/11 00:23:42;;;;;;;16.08;11.27;;;;;;;3.58;77.73;101376.72;6194932;23;20438;-89
2022/04/11 00:26:09;;;;;;;18.17;10.98;;;;;;;3.56;78.14;101357.84;6195654;23;20025;-89
2022/04/11 00:28:35;;;;;;;15.68;11.07;;;;;;;3.63;76.72;101364.31;6194050;23;20017;-89
2022/04/11 00:31:02;;;;;;;15.18;11.20;;;;;;;3.62;77.01;101373.00;6193786;23;20025;-89
2022/04/11 00:33:33;;;;;;;14.25;10.68;;;;;;;3.56;77.39;101352.69;6194971;23;20366;-90
2022/04/11 00:36:08;;;;;;;16.02;10.65;;;;;;;3.50;76.94;101342.69;6193254;23;20028;-90
2022/04/11 00:38:41;;;;;;;14.73;10.65;;;;;;;3.58;77.68;101361.19;6192850;23;20017;-90
2022/04/11 00:41:10;;;;;;;15.55;11.20;;;;;;;3.57;77.16;101358.69;6192498;23;20021;-91
2022/04/11 00:43:40;;;;;;;17.83;11.00;;;;;;;3.52;77.56;101358.97;6191566;23;20021;-90
2022/04/11 00:46:25;;;;;;;12.82;10.43;;;;;;;3.44;77.28;101326.72;6166843;23;20033;-90
2022/04/11 00:48:55;;;;;;;15.77;10.93;;;;;;;3.35;77.45;101315.16;6196267;23;20100;-91
2022/04/11 00:51:36;;;;;;;16.00;9.68;;;;;;;3.44;77.06;101318.94;6194722;23;20017;-91
2022/04/11 00:56:46;;;;;;;14.90;10.47;;;;;;;3.56;77.58;101350.09;6196308;23;20025;-91
2022/04/11 00:59:20;;;;;;;14.80;9.98;;;;;;;3.47;77.39;101332.53;6194988;23;20017;-91
2022/04/11 01:01:55;;;;;;;14.45;9.93;;;;;;;3.46;77.46;101338.63;6168833;23;20063;-90
2022/04/11 01:04:30;;;;;;;16.13;10.52;;;;;;;3.47;78.02;101336.88;6208764;23;20044;-93
2022/04/11 01:07:01;;;;;;;15.60;11.23;;;;;;;3.48;77.43;101336.78;6201585;23;20032;-90
2022/04/11 01:09:40;;;;;;;15.63;9.32;;;;;;;3.47;77.44;101335.13;6192231;23;20048;-90
2022/04/11 01:12:14;;;;;;;12.98;9.68;;;;;;;3.34;78.31;101310.91;6191736;23;20021;-90
2022/04/11 01:14:49;;;;;;;14.90;10.20;;;;;;;3.34;78.22;101318.66;6192141;23;20101;-91
2022/04/11 01:17:20;;;;;;;12.85;9.02;;;;;;;3.29;78.52;101307.81;6190372;23;20023;-91
2022/04/11 01:20:05;;;;;;;13.85;9.80;;;;;;;3.27;78.03;101300.13;6195751;23;20021;-90
2022/04/11 01:22:37;;;;;;;15.63;9.57;;;;;;;3.30;78.10;101306.88;6196736;23;20028;-91
2022/04/11 01:25:10;;;;;;;20.58;9.80;;;;;;;3.26;78.54;101308.81;6194126;23;20085;-90
2022/04/11 01:27:44;;;;;;;12.05;9.02;;;;;;;3.23;78.38;101293.47;6191626;23;20034;-91
2022/04/11 01:30:16;;;;;;;13.05;9.40;;;;;;;3.19;78.06;101289.41;6165695;23;20100;-91
2022/04/11 01:32:52;;;;;;;14.50;9.02;;;;;;;3.20;78.69;101293.66;6165020;23;20151;-91
2022/04/11 01:35:26;;;;;;;13.60;9.20;;;;;;;3.26;78.77;101289.88;6191475;23;20055;-92
2022/04/11 01:38:00;;;;;;;13.32;9.82;;;;;;;3.37;79.04;101309.91;6190557;23;20017;-90
2022/04/11 01:40:30;;;;;;;15.90;9.45;;;;;;;3.30;78.89;101296.53;6189622;23;20021;-91
2022/04/11 01:43:06;;;;;;;10.80;9.02;;;;;;;3.21;78.62;101284.97;6191378;23;20024;-91
2022/04/11 01:45:48;;;;;;;12.45;9.38;;;;;;;3.26;79.13;101287.28;6192039;23;20405;-91
2022/04/11 01:48:25;;;;;;;14.57;9.77;;;;;;;3.40;79.04;101307.13;6165096;23;20025;-90
2022/04/11 01:50:57;;;;;;;13.48;8.90;;;;;;;3.32;79.10;101282.56;6166012;23;20096;-91
2022/04/11 01:53:33;;;;;;;12.02;8.75;;;;;;;3.39;77.70;101290.78;6165492;23;20025;-91
2022/04/11 01:56:07;;;;;;;13.40;8.85;;;;;;;3.28;77.70;101269.94;6191858;23;20021;-90
2022/04/11 02:01:35;;;;;;;14.63;9.32;;;;;;;3.34;77.31;101285.03;6187219;23;20025;-90
2022/04/11 02:04:08;;;;;;;13.65;8.65;;;;;;;3.25;77.76;101270.94;6188859;23;20048;-90
2022/04/11 02:06:41;;;;;;;14.38;8.43;;;;;;;3.39;78.15;101287.34;6190153;23;20335;-90
2022/04/11 02:09:16;;;;;;;11.32;8.05;;;;;;;3.42;78.26;101288.00;6164786;23;20024;-90
2022/04/11 02:11:59;;;;;;;14.57;9.32;;;;;;;3.27;78.01;101268.25;6190980;23;20021;-90
2022/04/11 02:14:43;;;;;;;14.95;8.43;;;;;;;3.38;78.41;101286.53;6190354;23;20112;-90
2022/04/11 02:17:11;;;;;;;13.07;8.98;;;;;;;3.24;78.71;101274.44;6189652;23;20071;-90
2022/04/11 02:19:51;;;;;;;12.40;8.20;;;;;;;3.37;78.42;101290.03;6189763;23;20032;-90
2022/04/11 02:22:51;;;;;;;12.15;8.23;;;;;;;3.20;77.84;101257.47;6189894;23;20021;-90
2022/04/11 02:25:32;;;;;;;13.30;8.00;;;;;;;3.33;78.11;101291.13;6190627;23;20028;-91
2022/04/11 02:28:01;;;;;;;11.52;8.27;;;;;;;3.42;78.50;101290.59;6190827;23;20017;-90
2022/04/11 02:30:39;;;;;;;15.07;8.60;;;;;;;3.22;77.83;101260.78;6190708;23;20040;-90
2022/04/11 02:33:16;;;;;;;12.77;8.45;;;;;;;3.28;78.38;101275.09;6190702;23;20040;-90
2022/04/11 02:35:51;;;;;;;12.25;8.30;;;;;;;3.14;78.51;101257.81;6188070;23;20017;-91
2022/04/11 02:38:33;;;;;;;15.93;7.82;;;;;;;3.28;78.47;101290.63;6189843;23;20100;-90
2022/04/11 02:41:10;;;;;;;10.30;8.30;;;;;;;3.07;78.97;101261.69;6186472;23;20409;-90
2022/04/11 02:43:43;;;;;;;13.50;8.55;;;;;;;3.10;78.98;101264.09;6163836;23;20096;-90
2022/04/11 02:46:19;;;;;;;11.25;8.32;;;;;;;3.16;78.36;101286.19;6163056;23;20129;-90
2022/04/11 02:48:55;;;;;;;14.13;8.68;;;;;;;3.15;79.16;101289.69;6189915;23;20020;-90
2022/04/11 02:54:26;;;;;;;12.48;8.18;;;;;;;3.15;78.38;101276.75;6189919;23;20055;-91
2022/04/11 02:57:12;;;;;;;11.25;7.80;;;;;;;2.97;78.17;101264.00;6189511;23;20016;-90
2022/04/11 02:59:46;;;;;;;9.63;7.55;;;;;;;3.00;77.52;101263.81;6165306;23;20080;-90
2022/04/11 03:02:35;;;;;;;10.13;7.45;;;;;;;2.97;77.66;101266.59;6189689;23;20021;-90
2022/04/11 03:05:20;;;;;;;10.20;7.50;;;;;;;2.93;77.79;101259.94;6190476;23;20096;-91
2022/04/11 03:10:45;;;;;;;12.45;7.75;;;;;;;2.94;77.85;101264.19;6186814;23;20027;-90
2022/04/11 03:13:34;;;;;;;10.23;7.53;;;;;;;3.04;78.33;101289.50;6190411;23;20056;-90
2022/04/11 03:19:09;;;;;;;10.50;7.63;;;;;;;2.83;77.60;101248.50;6185537;23;20064;-91
2022/04/11 03:27:55;;;;;;;13.80;7.28;;;;;;;3.05;77.54;101283.41;5059456;27;2850950;-79
2022/04/11 03:33:12;;;;;;;9.77;7.72;;;;;;;2.97;77.64;101270.94;5111168;28;20047;-80
2022/04/11 03:35:45;;;;;;;9.35;7.47;;;;;;;3.05;77.40;101291.16;5113827;28;20048;-80
2022/04/11 03:38:20;;;;;;;18.23;7.50;;;;;;;2.98;77.54;101283.75;5113097;28;20051;-80
2022/04/11 03:40:48;;;;;;;10.98;7.38;;;;;;;2.99;77.49;101284.59;5130600;22;20040;-78
2022/04/11 03:43:16;;;;;;;11.23;7.28;;;;;;;3.02;77.36;101281.00;5101878;28;20040;-79
2022/04/11 03:45:42;;;;;;;11.57;7.75;;;;;;;2.97;77.35;101284.69;5102715;28;20048;-79
2022/04/11 03:48:09;;;;;;;9.55;7.35;;;;;;;2.92;77.60;101275.53;5102435;28;20865;-80
2022/04/11 03:50:38;;;;;;;16.20;8.07;;;;;;;2.92;77.23;101273.78;5103092;28;20183;-79
2022/04/11 03:53:05;;;;;;;13.10;7.53;;;;;;;2.91;77.81;101281.63;5117559;28;20090;-80
2022/04/11 03:55:32;;;;;;;12.48;7.15;;;;;;;2.87;77.33;101278.41;5121308;28;20399;-78
2022/04/11 03:57:59;;;;;;;9.63;6.82;;;;;;;2.92;77.33;101272.94;5118406;28;20550;-77
2022/04/11 04:00:27;;;;;;;10.07;6.97;;;;;;;2.91;77.07;101266.94;5118332;28;20068;-79
2022/04/11 04:02:56;;;;;;;12.15;7.35;;;;;;;2.88;77.38;101271.47;5122348;28;20051;-79
2022/04/11 04:05:23;;;;;;;10.80;7.30;;;;;;;2.89;77.08;101265.38;5123858;28;20093;-80
2022/04/11 04:07:50;;;;;;;17.63;7.78;;;;;;;2.82;78.00;101267.53;5124844;28;20135;-78
2022/04/11 04:10:16;;;;;;;12.13;7.60;;;;;;;2.81;77.95;101268.44;5117354;28;20090;-79
2022/04/11 04:12:43;;;;;;;10.65;7.32;;;;;;;2.77;77.37;101268.72;5115649;28;20072;-79
2022/04/11 04:15:10;;;;;;;12.43;7.50;;;;;;;2.73;77.84;101268.06;5115686;28;20097;-80
2022/04/11 04:17:38;;;;;;;11.50;8.15;;;;;;;2.73;78.01;101257.72;5115815;28;20054;-80
2022/04/11 04:20:05;;;;;;;11.63;7.35;;;;;;;2.69;78.13;101261.41;5115069;28;20087;-80
2022/04/11 04:22:32;;;;;;;11.48;7.78;;;;;;;2.62;78.55;101255.75;5115875;28;20082;-79
2022/04/11 04:24:58;;;;;;;11.48;7.78;;;;;;;2.59;79.48;101258.53;5115325;28;20127;-80
2022/04/11 04:27:25;;;;;;;10.05;8.07;;;;;;;2.54;80.15;101267.47;5115166;28;20565;-78
2022/04/11 04:29:51;;;;;;;14.75;8.40;;;;;;;2.55;79.61;101258.78;5113651;28;20660;-79
2022/04/11 04:32:19;;;;;;;10.15;8.02;;;;;;;2.47;80.27;101273.91;5114520;28;20111;-79
2022/04/11 04:34:47;;;;;;;14.18;8.13;;;;;;;2.37;81.20;101265.00;5115913;28;20104;-79
2022/04/11 04:37:14;;;;;;;12.27;8.38;;;;;;;2.38;80.32;101271.84;5110784;28;20044;-79
2022/04/11 04:39:40;;;;;;;13.65;8.20;;;;;;;2.30;81.39;101269.72;5101336;28;20103;-79
2022/04/11 04:42:08;;;;;;;11.32;8.23;;;;;;;2.24;81.23;101260.56;5102136;28;20134;-79
2022/04/11 04:44:39;;;;;;;14.57;8.43;;;;;;;2.22;81.44;101267.56;5102900;28;20052;-79
2022/04/11 04:47:09;;;;;;;13.07;7.85;;;;;;;2.19;81.49;101264.31;5102852;28;20071;-80
2022/04/11 04:49:36;;;;;;;12.32;8.10;;;;;;;2.19;81.45;101269.50;5102102;28;20109;-78
2022/04/11 04:52:08;;;;;;;14.55;7.93;;;;;;;2.26;80.74;101281.97;5101878;28;20111;-80
2022/04/11 04:54:34;;;;;;;13.60;7.97;;;;;;;2.32;80.42;101271.31;5102701;28;20048;-80
2022/04/11 04:57:02;;;;;;;12.77;7.85;;;;;;;2.40;79.96;101272.59;5104857;28;20100;-80
2022/04/11 04:59:29;;;;;;;10.25;7.57;;;;;;;2.30;80.05;101269.72;5106633;28;20059;-81
2022/04/11 05:01:58;;;;;;;12.57;7.63;;;;;;;2.30;80.22;101269.72;5102859;28;20055;-79
2022/04/11 05:04:25;;;;;;;13.90;8.23;;;;;;;2.32;80.14;101273.88;5102409;28;20489;-79
2022/04/11 05:06:51;;;;;;;13.50;7.45;;;;;;;2.24;80.23;101270.91;5102583;28;20100;-80
2022/04/11 05:09:20;;;;;;;9.32;7.07;;;;;;;2.28;80.25;101274.97;5102455;28;20086;-80
2022/04/11 05:11:47;;;;;;;15.02;7.80;;;;;;;2.33;79.16;101270.38;5103281;28;20055;-80
2022/04/11 05:14:18;;;;;;;12.80;7.82;;;;;;;2.27;79.51;101265.56;5103637;28;20048;-81
2022/04/11 05:16:44;;;;;;;13.85;7.50;;;;;;;2.25;80.16;101272.56;5103511;28;20044;-80
2022/04/11 05:19:11;;;;;;;17.00;7.72;;;;;;;2.27;80.36;101280.22;5102882;28;20087;-81
2022/04/11 05:21:38;;;;;;;17.02;7.82;;;;;;;2.36;79.86;101274.53;5102161;28;20083;-80
2022/04/11 05:24:07;;;;;;;13.98;7.57;;;;;;;2.34;79.41;101271.22;5103173;28;20475;-79
2022/04/11 05:26:35;;;;;;;13.00;7.25;;;;;;;2.48;78.85;101278.16;5102899;28;20079;-80
2022/04/11 05:29:03;;;;;;;18.17;7.38;;;;;;;2.51;79.85;101272.81;5103127;28;20075;-79
2022/04/11 05:31:30;;;;;;;15.00;8.23;;;;;;;2.56;79.02;101270.78;5109727;28;20052;-78
2022/04/11 05:33:57;;;;;;;18.42;7.72;;;;;;;2.78;78.25;101268.63;5106331;28;20048;-80
2022/04/11 05:36:23;;;;;;;14.88;7.97;;;;;;;2.75;78.29;101276.56;5108537;28;20064;-79
2022/04/11 05:38:52;;;;;;;14.98;7.28;;;;;;;2.81;78.95;101276.19;5110474;28;20042;-78
2022/04/11 05:41:19;;;;;;;13.00;7.30;;;;;;;2.89;77.51;101279.13;5106725;28;20044;-78
2022/04/11 05:43:52;;;;;;;12.70;7.10;;;;;;;2.98;76.68;101277.75;5104402;28;20068;-80
2022/04/11 05:46:20;;;;;;;13.05;7.20;;;;;;;3.06;75.65;101269.56;5104357;28;20040;-79
2022/04/11 05:48:47;;;;;;;13.43;7.32;;;;;;;3.19;75.83;101263.56;5103679;28;20044;-79
2022/04/11 05:51:14;;;;;;;19.23;7.22;;;;;;;3.28;75.68;101269.94;5104259;28;20067;-80
2022/04/11 05:53:41;;;;;;;17.00;6.95;;;;;;;3.37;74.99;101256.41;5103452;28;20076;-79
2022/04/11 05:56:09;;;;;;;15.57;7.70;;;;;;;3.42;74.62;101262.13;5104376;28;20067;-79
2022/04/11 05:58:36;;;;;;;11.02;6.72;;;;;;;3.52;75.14;101260.63;5104276;28;20044;-80
2022/04/11 06:01:05;;;;;;;15.27;8.52;;;;;;;3.61;75.64;101249.72;5105341;28;20066;-79
2022/04/11 06:03:31;;;;;;;12.68;7.13;;;;;;;3.82;75.68;101255.28;5105125;28;20112;-80
2022/04/11 06:05:58;;;;;;;17.65;7.45;;;;;;;3.98;74.92;101260.31;5106709;28;20062;-80
2022/04/11 06:08:25;;;;;;;15.52;6.97;;;;;;;4.38;73.94;101262.91;5103813;28;20078;-78
2022/04/11 06:10:52;;;;;;;14.85;7.15;;;;;;;5.46;70.63;101258.09;5102371;28;20052;-80
2022/04/11 06:13:19;;;;;;;13.63;6.43;;;;;;;6.77;65.28;101257.13;5102424;28;20074;-78
2022/04/11 06:15:47;;;;;;;15.88;5.85;;;;;;;8.52;60.64;101269.19;5102931;28;20055;-78
2022/04/11 06:18:18;;;;;;;12.85;6.20;;;;;;;9.54;55.73;101251.78;5102310;28;20056;-78
2022/04/11 06:20:57;;;;;;;18.13;6.50;;;;;;;9.05;55.73;101244.75;5102746;28;20444;-79
2022/04/11 06:23:26;;;;;;;13.88;6.18;;;;;;;8.91;57.00;101259.84;5103343;28;20052;-79
2022/04/11 06:25:56;;;;;;;10.18;6.10;;;;;;;9.07;56.51;101238.44;5103504;28;20109;-80
2022/04/11 06:28:23;;;;;;;14.95;5.82;;;;;;;9.44;55.92;101250.97;5104220;28;20083;-79
2022/04/11 06:30:53;;;;;;;8.48;5.40;;;;;;;9.10;57.13;101242.59;5103128;28;20048;-80
2022/04/11 06:33:21;;;;;;;11.85;5.75;;;;;;;9.87;54.92;101254.06;5104247;28;20107;-80
2022/04/11 06:35:51;;;;;;;7.70;5.70;;;;;;;10.35;53.66;101252.44;5104600;28;20044;-79
2022/04/11 06:38:20;;;;;;;7.82;5.43;;;;;;;10.25;53.52;101253.28;5104281;28;20044;-79
2022/04/11 06:40:49;;;;;;;10.43;5.45;;;;;;;10.53;53.57;101248.13;5103404;28;20048;-80
2022/04/11 06:43:16;;;;;;;11.85;5.90;;;;;;;10.93;51.53;101248.69;5102576;28;20055;-80
2022/04/11 06:45:43;;;;;;;11.30;5.97;;;;;;;11.00;51.94;101254.19;5103986;28;20048;-80
2022/04/11 06:48:10;;;;;;;7.88;5.55;;;;;;;11.19;50.76;101259.38;5104371;28;20048;-79
2022/04/11 06:50:38;;;;;;;13.23;6.18;;;;;;;11.46;51.41;101244.59;5105474;28;20048;-79
2022/04/11 06:53:10;;;;;;;14.10;6.03;;;;;;;11.62;49.96;101250.84;5103583;28;20080;-79
2022/04/11 06:55:53;;;;;;;11.48;5.80;;;;;;;11.70;50.25;101247.50;5105552;28;20111;-78
2022/04/11 06:58:40;;;;;;;6.93;5.68;;;;;;;11.47;49.69;101233.16;5106313;28;20073;-78
2022/04/11 07:01:19;;;;;;;12.57;5.70;;;;;;;11.52;50.47;101242.22;5106489;28;20048;-80
2022/04/11 07:03:57;;;;;;;10.90;6.22;;;;;;;10.40;51.73;101250.22;5105362;28;20078;-79
2022/04/11 07:06:31;;;;;;;11.95;6.13;;;;;;;10.84;51.32;101251.38;5102311;28;20048;-79
2022/04/11 07:08:57;;;;;;;9.93;5.90;;;;;;;11.34;49.72;101238.75;5103394;28;20078;-80
2022/04/11 07:11:24;;;;;;;9.40;5.82;;;;;;;10.88;51.37;101234.38;5102737;28;20048;-80
2022/04/11 07:13:55;;;;;;;11.95;5.47;;;;;;;10.87;50.42;101233.56;5105723;28;20040;-79
2022/04/11 07:16:25;;;;;;;13.52;5.97;;;;;;;10.59;51.16;101229.25;5103253;28;20058;-80
2022/04/11 07:19:03;;;;;;;12.82;5.85;;;;;;;10.26;52.08;101222.72;5103941;28;20048;-80
2022/04/11 07:21:31;;;;;;;10.88;6.32;;;;;;;10.62;51.05;101231.59;5103355;28;20070;-79
2022/04/11 07:23:58;;;;;;;17.23;5.85;;;;;;;10.92;51.06;101225.28;5106442;28;20191;-79
2022/04/11 07:26:24;;;;;;;8.65;5.68;;;;;;;9.91;52.21;101234.53;5114818;28;20044;-80
2022/04/11 07:28:51;;;;;;;7.97;6.22;;;;;;;10.03;52.34;101237.81;5115620;28;20048;-80
2022/04/11 07:31:18;;;;;;;10.35;6.00;;;;;;;10.48;51.55;101240.69;5115475;28;20063;-79
2022/04/11 07:33:49;;;;;;;9.35;6.10;;;;;;;10.60;51.42;101223.03;5106456;28;20052;-78
2022/04/11 07:36:15;;;;;;;12.13;6.13;;;;;;;12.15;48.57;101234.34;5102854;28;20416;-80
2022/04/11 07:38:43;;;;;;;13.27;6.40;;;;;;;12.21;47.93;101246.03;5103359;28;20048;-80
2022/04/11 07:41:10;;;;;;;11.75;6.20;;;;;;;11.52;48.81;101236.97;5103684;28;20044;-80
2022/04/11 07:43:39;;;;;;;12.52;6.00;;;;;;;11.26;49.04;101238.66;5104342;28;20109;-80
2022/04/11 07:46:11;;;;;;;10.63;6.40;;;;;;;11.63;50.40;101222.84;5103718;28;20109;-79
2022/04/11 07:48:38;;;;;;;7.75;6.00;;;;;;;12.03;47.83;101237.34;5102809;28;20044;-80
2022/04/11 07:51:08;;;;;;;14.63;5.90;;;;;;;11.75;48.35;101216.41;5102843;28;20055;-80
2022/04/11 07:53:39;;;;;;;10.93;5.90;;;;;;;13.02;46.13;101219.47;5102560;28;20044;-80
2022/04/11 07:56:07;;;;;;;11.77;6.30;;;;;;;12.29;46.64;101214.59;5102791;28;20052;-80
2022/04/11 07:58:34;;;;;;;10.15;6.20;;;;;;;12.37;45.62;101204.16;5103188;28;20048;-79
2022/04/11 08:01:01;;;;;;;8.93;5.72;;;;;;;12.04;47.49;101218.81;5105174;28;20075;-79
2022/04/11 08:03:28;;;;;;;8.82;5.75;;;;;;;11.47;48.90;101207.75;5108516;28;20072;-79
2022/04/11 08:05:54;;;;;;;8.85;6.78;;;;;;;11.79;48.13;101214.34;5110701;28;20458;-79
2022/04/11 08:08:21;;;;;;;19.17;6.00;;;;;;;11.61;49.67;101209.88;5105323;28;20084;-80
2022/04/11 08:10:47;;;;;;;10.60;5.82;;;;;;;12.02;47.78;101215.53;5100353;28;20055;-79
2022/04/11 08:13:15;;;;;;;14.30;6.35;;;;;;;11.75;47.84;101215.59;5102065;28;20051;-79
2022/04/11 08:15:42;;;;;;;14.02;6.15;;;;;;;11.66;48.02;101211.25;5103712;28;20078;-80
2022/04/11 08:18:09;;;;;;;10.73;6.03;;;;;;;11.82;48.13;101206.16;5101636;28;20925;-79
2022/04/11 08:20:36;;;;;;;20.42;6.22;;;;;;;11.15;47.74;101194.31;5103037;28;20135;-79
2022/04/11 08:23:02;;;;;;;9.63;5.70;;;;;;;11.47;49.24;101205.13;5103748;28;20222;-79
2022/04/11 08:25:29;;;;;;;10.00;5.82;;;;;;;12.27;47.02;101214.75;5102986;28;20106;-79
2022/04/11 08:27:56;;;;;;;10.63;6.03;;;;;;;11.84;47.56;101207.66;5101834;28;20083;-78
2022/04/11 08:30:24;;;;;;;9.77;5.70;;;;;;;12.93;47.07;101195.78;5104417;28;20044;-79
2022/04/11 08:32:52;;;;;;;13.57;10.45;;;;;;;12.88;45.40;101198.03;5108214;28;20048;-78
2022/04/11 08:35:20;;;;;;;7.93;5.35;;;;;;;12.90;46.49;101190.81;5105485;28;20062;-79
2022/04/11 08:37:47;;;;;;;8.27;5.47;;;;;;;12.52;45.49;101191.28;5106438;28;20059;-79
2022/04/11 08:40:16;;;;;;;9.65;5.75;;;;;;;11.99;46.90;101184.34;5110730;28;20060;-78
2022/04/11 08:42:44;;;;;;;18.40;6.30;;;;;;;12.59;45.97;101187.06;5112933;28;20093;-79
2022/04/11 08:45:13;;;;;;;17.17;6.28;;;;;;;12.03;46.46;101188.31;5108027;28;20052;-78
2022/04/11 08:47:42;;;;;;;12.88;5.82;;;;;;;12.40;47.37;101200.41;5112236;28;20063;-83
2022/04/11 08:50:09;;;;;;;10.68;5.38;;;;;;;12.39;45.17;101193.50;5110217;28;20060;-78
2022/04/11 08:52:37;;;;;;;10.70;5.60;;;;;;;13.27;44.31;101187.88;5107210;28;20116;-78
2022/04/11 08:55:04;;;;;;;8.07;4.85;;;;;;;12.29;46.58;101197.03;5104945;28;20075;-79
2022/04/11 08:57:31;;;;;;;9.38;4.90;;;;;;;12.26;45.58;101184.25;5105256;28;20514;-79
2022/04/11 09:00:02;;;;;;;8.43;5.00;;;;;;;12.92;45.69;101178.38;5105231;28;20080;-78
2022/04/11 09:02:32;;;;;;;16.92;5.43;;;;;;;12.74;44.75;101167.13;5106571;28;20427;-78
2022/04/11 09:05:00;;;;;;;6.97;4.32;;;;;;;12.53;44.07;101171.94;5105936;28;20048;-78
2022/04/11 09:07:27;;;;;;;9.18;4.80;;;;;;;12.64;44.99;101171.69;5104241;28;20082;-80
2022/04/11 09:09:59;;;;;;;7.47;4.60;;;;;;;13.20;43.73;101163.25;5104146;28;20067;-80
2022/04/11 09:12:26;;;;;;;7.13;4.32;;;;;;;13.08;43.76;101158.41;5108270;28;20051;-78
2022/04/11 09:14:56;;;;;;;8.68;4.53;;;;;;;13.27;42.52;101158.13;5110530;28;20078;-78
2022/04/11 09:17:23;;;;;;;13.88;4.53;;;;;;;13.57;41.98;101149.66;5104439;28;20044;-79
2022/04/11 09:20:07;;;;;;;14.15;4.72;;;;;;;12.61;41.76;101153.59;5103224;28;20178;-79
2022/04/11 09:22:34;;;;;;;9.50;4.72;;;;;;;12.83;41.91;101158.28;5103458;28;20048;-80
2022/04/11 09:25:12;;;;;;;8.82;5.00;;;;;;;12.90;42.22;101155.88;5103158;28;20079;-78
2022/04/11 09:27:39;;;;;;;5.63;4.50;;;;;;;12.33;42.14;101160.00;5103651;28;20123;-78
2022/04/11 09:30:23;;;;;;;11.95;4.55;;;;;;;12.62;41.86;101147.38;5103002;28;20076;-79
2022/04/11 09:32:54;;;;;;;10.48;4.47;;;;;;;12.32;40.81;101153.91;5103199;28;20494;-79
2022/04/11 09:35:23;;;;;;;10.80;4.60;;;;;;;12.52;39.47;101149.28;5102997;28;20052;-78
2022/04/11 09:38:05;;;;;;;19.38;5.13;;;;;;;12.42;38.71;101144.16;5102686;28;20079;-76
2022/04/11 09:40:36;;;;;;;7.20;4.30;;;;;;;12.39;39.69;101139.22;5123079;22;20048;-83
2022/04/11 09:43:02;;;;;;;8.40;4.45;;;;;;;13.05;38.28;101146.41;5081538;28;20091;-83
2022/04/11 09:45:29;;;;;;;6.50;4.03;;;;;;;13.18;38.20;101143.34;5081540;28;20135;-83
2022/04/11 09:48:00;;;;;;;8.25;4.43;;;;;;;13.29;39.64;101132.53;5080866;28;20072;-82
2022/04/11 09:50:30;;;;;;;6.85;4.38;;;;;;;13.51;37.70;101147.69;5083097;28;20515;-83
2022/04/11 09:53:07;;;;;;;12.98;4.95;;;;;;;13.45;39.71;101148.31;5101144;28;20055;-83
2022/04/11 09:55:35;;;;;;;11.88;4.90;;;;;;;12.69;41.32;101145.78;5101642;28;20068;-83
2022/04/11 09:58:03;;;;;;;12.18;4.60;;;;;;;12.61;41.27;101148.38;5101745;28;20044;-83
2022/04/11 10:00:31;;;;;;;8.25;4.82;;;;;;;12.36;40.50;101155.25;5102020;28;20054;-83
2022/04/11 10:02:58;;;;;;;6.63;4.90;;;;;;;12.55;41.72;101144.56;5102623;28;20075;-83
2022/04/11 10:05:25;;;;;;;9.10;4.68;;;;;;;12.98;41.26;101139.31;5104782;28;20048;-83
2022/04/11 10:07:54;;;;;;;6.22;4.28;;;;;;;12.87;40.03;101145.66;5112633;28;20079;-83
2022/04/11 10:10:21;;;;;;;9.98;5.00;;;;;;;12.30;40.08;101127.00;5113864;28;20071;-83
2022/04/11 10:12:48;;;;;;;9.95;4.95;;;;;;;12.74;41.00;101119.06;5110877;28;20052;-83
2022/04/11 10:15:15;;;;;;;8.55;4.93;;;;;;;12.84;41.27;101112.66;5101981;28;20048;-83
2022/04/11 10:17:42;;;;;;;9.88;4.60;;;;;;;12.77;40.55;101111.66;5101297;28;20036;-83
2022/04/11 10:20:09;;;;;;;11.52;5.10;;;;;;;13.36;40.66;101112.50;5100344;28;20051;-83
2022/04/11 10:22:44;;;;;;;7.90;4.65;;;;;;;13.16;39.81;101105.91;5100354;28;20128;-83
2022/04/11 10:25:18;;;;;;;6.63;4.75;;;;;;;12.83;39.68;101097.06;5101467;28;20079;-82
2022/04/11 10:27:45;;;;;;;8.88;5.18;;;;;;;12.91;39.76;101111.06;5100831;28;20127;-84
2022/04/11 10:30:28;;;;;;;8.80;4.60;;;;;;;13.47;39.83;101091.16;5099443;28;20052;-84
2022/04/11 10:32:55;;;;;;;9.65;4.40;;;;;;;14.10;39.17;101090.47;5100324;28;20055;-82
2022/04/11 10:35:33;;;;;;;8.60;4.78;;;;;;;13.66;40.28;101086.56;5100956;28;20044;-82
2022/04/11 10:38:06;;;;;;;7.78;4.82;;;;;;;13.24;39.11;101085.69;5099358;28;20048;-82
2022/04/11 10:40:36;;;;;;;8.23;5.18;;;;;;;13.35;39.69;101079.31;5099056;28;20413;-83
2022/04/11 10:43:14;;;;;;;7.47;4.70;;;;;;;13.42;38.87;101074.22;5098308;28;20107;-82
2022/04/11 10:45:42;;;;;;;9.85;5.22;;;;;;;13.91;38.85;101082.91;5098659;28;20109;-83
2022/04/11 10:48:12;;;;;;;13.13;5.22;;;;;;;14.01;39.00;101077.47;5098180;28;20086;-83
2022/04/11 10:50:40;;;;;;;8.25;4.70;;;;;;;14.13;37.43;101074.34;5097444;28;20445;-84
2022/04/11 10:53:09;;;;;;;8.45;4.25;;;;;;;13.74;38.03;101065.50;5096748;28;20091;-84
2022/04/11 10:55:54;;;;;;;9.43;4.93;;;;;;;13.71;39.14;101064.03;5096820;28;20054;-83
2022/04/11 10:58:22;;;;;;;12.20;5.03;;;;;;;13.77;37.98;101052.84;5097078;28;20051;-83
2022/04/11 11:00:51;;;;;;;8.38;5.00;;;;;;;14.45;38.44;101057.63;5098171;28;20044;-83
2022/04/11 11:03:18;;;;;;;7.05;4.90;;;;;;;14.75;37.13;101065.72;5098981;28;20044;-83
2022/04/11 11:05:48;;;;;;;12.25;5.13;;;;;;;14.80;37.61;101058.13;5097145;28;20047;-84
2022/04/11 11:08:32;;;;;;;13.52;5.05;;;;;;;13.74;36.61;101057.59;5097248;28;20054;-83
2022/04/11 11:11:02;;;;;;;8.35;5.00;;;;;;;13.73;36.82;101038.38;5097854;28;20091;-83
2022/04/11 11:13:38;;;;;;;7.57;4.72;;;;;;;13.63;37.35;101047.44;5096414;28;20058;-83
2022/04/11 11:16:41;;;;;;;10.65;4.50;;;;;;;13.43;36.86;101036.44;5096855;28;20044;-83
2022/04/11 11:19:17;;;;;;;11.25;5.32;;;;;;;14.22;37.54;101025.09;5091995;28;20126;-83
2022/04/11 11:22:01;;;;;;;8.10;4.75;;;;;;;14.07;36.70;101040.78;5099010;28;20075;-84
2022/04/11 11:24:29;;;;;;;10.23;5.20;;;;;;;14.18;37.66;101024.63;5096494;28;20123;-83
2022/04/11 11:26:59;;;;;;;12.77;5.32;;;;;;;14.61;35.63;101014.63;5095746;28;20234;-84
2022/04/11 11:29:30;;;;;;;11.05;5.00;;;;;;;14.28;36.95;101019.16;5096317;28;20090;-84
2022/04/11 11:31:58;;;;;;;8.13;5.00;;;;;;;13.81;36.61;101016.50;5095914;28;20074;-84
2022/04/11 11:34:26;;;;;;;10.27;4.53;;;;;;;14.17;34.87;101012.47;5095053;28;20040;-82
2022/04/11 11:36:58;;;;;;;14.45;5.50;;;;;;;14.34;35.74;101004.50;5095195;28;20478;-85
2022/04/11 11:39:26;;;;;;;11.95;5.30;;;;;;;14.38;35.23;101006.63;5095499;28;20139;-84
2022/04/11 11:41:55;;;;;;;10.52;4.88;;;;;;;14.24;35.15;100999.44;5099643;28;20147;-84
2022/04/11 11:44:23;;;;;;;9.80;5.05;;;;;;;14.27;34.95;101009.63;5095705;28;20062;-83
2022/04/11 11:46:51;;;;;;;7.05;4.53;;;;;;;13.80;34.84;101005.16;5094902;28;20154;-84
2022/04/11 11:49:18;;;;;;;7.97;4.65;;;;;;;14.00;35.72;100995.09;5099972;28;20040;-81
2022/04/11 11:51:45;;;;;;;9.05;4.95;;;;;;;13.89;35.13;100987.56;5099137;28;20055;-85
2022/04/11 11:54:11;;;;;;;10.07;4.95;;;;;;;14.43;34.68;100995.59;5098451;28;20072;-84
2022/04/11 11:56:43;;;;;;;12.55;5.25;;;;;;;14.23;35.30;100985.44;5097573;28;20067;-85
2022/04/11 11:59:09;;;;;;;8.60;4.80;;;;;;;14.77;35.39;100985.53;5097220;28;20483;-83
2022/04/11 12:01:38;;;;;;;12.18;4.47;;;;;;;14.70;36.41;100976.66;5108421;28;20060;-83